createdAt,value
2017-02-12T00:00:22.035Z,0
2017-02-12T00:01:22.534Z,0
2017-02-12T00:02:22.745Z,0
2017-02-12T00:03:22.545Z,0
2017-02-12T00:04:23.451Z,0
2017-02-12T00:05:22.455Z,0
2017-02-12T00:06:22.608Z,0
2017-02-12T00:07:22.568Z,0
2017-02-12T00:08:22.179Z,0
2017-02-12T00:09:22.479Z,0
2017-02-12T00:10:22.484Z,0
2017-02-12T00:11:22.502Z,0
2017-02-12T00:12:22.501Z,0
2017-02-12T00:13:22.506Z,0
2017-02-12T00:14:22.215Z,0
2017-02-12T00:15:23.114Z,0
2017-02-12T00:16:22.574Z,0
2017-02-12T00:17:22.235Z,0
2017-02-12T00:18:22.532Z,0
2017-02-12T00:19:22.543Z,0
2017-02-12T00:20:22.546Z,0
2017-02-12T00:21:22.258Z,0
2017-02-12T00:22:22.656Z,0
2017-02-12T00:23:22.563Z,0
2017-02-12T00:24:23.488Z,0
2017-02-12T00:25:22.578Z,0
2017-02-12T00:26:22.797Z,0
2017-02-12T00:27:22.739Z,0
2017-02-12T00:28:23.624Z,0
2017-02-12T00:29:22.611Z,0
2017-02-12T00:30:22.661Z,0
2017-02-12T00:31:22.716Z,0
2017-02-12T00:32:22.623Z,0
2017-02-12T00:33:22.681Z,0
2017-02-12T00:34:22.778Z,0
2017-02-12T00:35:23.442Z,0
2017-02-12T00:36:22.301Z,0
2017-02-12T00:37:22.855Z,0
2017-02-12T00:38:22.654Z,0
2017-02-12T00:39:22.364Z,0
2017-02-12T00:40:22.767Z,0
2017-02-12T00:41:22.722Z,0
2017-02-12T00:42:22.384Z,0
2017-02-12T00:43:22.685Z,0
2017-02-12T00:44:22.302Z,0
2017-02-12T00:45:22.797Z,0
2017-02-12T00:46:22.756Z,0
2017-02-12T00:47:22.806Z,0
2017-02-12T00:48:22.769Z,0
2017-02-12T00:49:22.379Z,0
2017-02-12T00:50:23.733Z,0
2017-02-12T00:51:22.836Z,0
2017-02-12T00:52:22.404Z,0
2017-02-12T00:53:22.403Z,0
2017-02-12T00:54:22.860Z,0
2017-02-12T00:55:22.758Z,0
2017-02-12T00:56:22.844Z,0
2017-02-12T00:57:22.821Z,0
2017-02-12T00:58:22.432Z,0
2017-02-12T00:59:22.489Z,0
2017-02-12T01:00:22.793Z,0
2017-02-12T01:01:23.498Z,0
2017-02-12T01:02:22.460Z,0
2017-02-12T01:03:22.857Z,0
2017-02-12T01:04:22.866Z,0
2017-02-12T01:05:22.527Z,0
2017-02-12T01:06:22.890Z,0
2017-02-12T01:07:22.881Z,0
2017-02-12T01:08:22.890Z,0
2017-02-12T01:09:22.896Z,0
2017-02-12T01:10:22.112Z,0
2017-02-12T01:11:22.563Z,0
2017-02-12T01:12:23.319Z,0
2017-02-12T01:13:22.867Z,0
2017-02-12T01:14:24.002Z,0
2017-02-12T01:15:22.483Z,0
2017-02-12T01:16:23.040Z,0
2017-02-12T01:17:22.942Z,0
2017-02-12T01:18:22.903Z,0
2017-02-12T01:19:22.911Z,0
2017-02-12T01:20:22.960Z,0
2017-02-12T01:21:23.413Z,0
2017-02-12T01:22:22.587Z,0
2017-02-12T01:23:23.231Z,0
2017-02-12T01:24:23.032Z,0
2017-02-12T01:25:22.645Z,0
2017-02-12T01:26:22.945Z,0
2017-02-12T01:27:22.659Z,0
2017-02-12T01:28:23.061Z,0
2017-02-12T01:29:23.062Z,0
2017-02-12T01:30:23.018Z,0
2017-02-12T01:31:22.581Z,0
2017-02-12T01:32:22.684Z,0
2017-02-12T01:33:22.640Z,0
2017-02-12T01:34:22.649Z,0
2017-02-12T01:35:22.604Z,0
2017-02-12T01:36:23.761Z,0
2017-02-12T01:37:23.148Z,0
2017-02-12T01:38:23.116Z,0
2017-02-12T01:39:23.078Z,0
2017-02-12T01:40:23.076Z,0
2017-02-12T01:41:23.184Z,0
2017-02-12T01:42:22.692Z,0
2017-02-12T01:43:23.044Z,0
2017-02-12T01:44:23.102Z,0
2017-02-12T01:45:22.716Z,0
2017-02-12T01:46:22.718Z,0
2017-02-12T01:47:23.876Z,0
2017-02-12T01:48:22.729Z,0
2017-02-12T01:49:23.186Z,0
2017-02-12T01:50:22.744Z,0
2017-02-12T01:51:23.196Z,0
2017-02-12T01:52:23.149Z,0
2017-02-12T01:53:23.255Z,0
2017-02-12T01:54:23.465Z,0
2017-02-12T01:55:23.217Z,0
2017-02-12T01:56:23.275Z,0
2017-02-12T01:57:23.233Z,0
2017-02-12T01:58:24.138Z,0
2017-02-12T01:59:23.241Z,0
2017-02-12T02:00:23.365Z,0
2017-02-12T02:01:23.151Z,0
2017-02-12T02:02:23.164Z,0
2017-02-12T02:03:23.220Z,0
2017-02-12T02:04:23.223Z,0
2017-02-12T02:05:23.181Z,0
2017-02-12T02:06:23.237Z,0
2017-02-12T02:07:23.199Z,0
2017-02-12T02:08:23.294Z,0
2017-02-12T02:09:23.906Z,0
2017-02-12T02:10:23.561Z,0
2017-02-12T02:11:22.865Z,0
2017-02-12T02:12:23.276Z,0
2017-02-12T02:13:23.226Z,0
2017-02-12T02:14:23.285Z,0
2017-02-12T02:15:23.340Z,0
2017-02-12T02:16:22.902Z,0
2017-02-12T02:17:23.247Z,0
2017-02-12T02:18:23.603Z,0
2017-02-12T02:19:23.312Z,0
2017-02-12T02:20:23.621Z,0
2017-02-12T02:21:22.923Z,0
2017-02-12T02:22:24.309Z,0
2017-02-12T02:23:22.492Z,0
2017-02-12T02:24:22.946Z,0
2017-02-12T02:25:22.899Z,0
2017-02-12T02:26:23.303Z,0
2017-02-12T02:27:23.306Z,0
2017-02-12T02:28:23.316Z,0
2017-02-12T02:29:23.319Z,0
2017-02-12T02:30:23.328Z,0
2017-02-12T02:31:23.390Z,0
2017-02-12T02:32:23.344Z,0
2017-02-12T02:33:24.565Z,0
2017-02-12T02:34:23.405Z,0
2017-02-12T02:35:23.410Z,0
2017-02-12T02:36:23.411Z,0
2017-02-12T02:37:23.469Z,0
2017-02-12T02:38:23.423Z,0
2017-02-12T02:39:23.458Z,0
2017-02-12T02:40:23.514Z,0
2017-02-12T02:41:23.394Z,0
2017-02-12T02:42:23.400Z,0
2017-02-12T02:43:23.006Z,0
2017-02-12T02:44:24.558Z,0
2017-02-12T02:45:23.462Z,0
2017-02-12T02:46:23.281Z,0
2017-02-12T02:47:23.623Z,0
2017-02-12T02:48:23.534Z,0
2017-02-12T02:49:23.343Z,0
2017-02-12T02:50:23.050Z,0
2017-02-12T02:51:23.152Z,0
2017-02-12T02:52:23.111Z,0
2017-02-12T02:53:23.514Z,0
2017-02-12T02:54:24.071Z,0
2017-02-12T02:55:24.282Z,0
2017-02-12T02:56:23.535Z,0
2017-02-12T02:57:23.485Z,0
2017-02-12T02:58:23.539Z,0
2017-02-12T02:59:23.102Z,0
2017-02-12T03:00:23.501Z,0
2017-02-12T03:01:23.112Z,0
2017-02-12T03:02:23.567Z,0
2017-02-12T03:03:23.567Z,0
2017-02-12T03:04:23.527Z,0
2017-02-12T03:05:23.583Z,0
2017-02-12T03:06:24.239Z,0
2017-02-12T03:07:23.595Z,0
2017-02-12T03:08:23.600Z,0
2017-02-12T03:09:23.654Z,0
2017-02-12T03:10:23.560Z,0
2017-02-12T03:11:23.679Z,0
2017-02-12T03:12:23.226Z,0
2017-02-12T03:13:23.283Z,0
2017-02-12T03:14:23.604Z,0
2017-02-12T03:15:23.588Z,0
2017-02-12T03:16:23.899Z,0
2017-02-12T03:17:23.747Z,0
2017-02-12T03:18:23.665Z,0
2017-02-12T03:19:22.871Z,0
2017-02-12T03:20:23.668Z,0
2017-02-12T03:21:23.622Z,0
2017-02-12T03:22:23.293Z,0
2017-02-12T03:23:23.687Z,0
2017-02-12T03:24:23.694Z,0
2017-02-12T03:25:23.699Z,0
2017-02-12T03:26:23.705Z,0
2017-02-12T03:27:23.710Z,0
2017-02-12T03:28:23.525Z,0
2017-02-12T03:29:23.681Z,0
2017-02-12T03:30:24.785Z,0
2017-02-12T03:31:23.337Z,0
2017-02-12T03:32:23.497Z,0
2017-02-12T03:33:23.305Z,0
2017-02-12T03:34:23.752Z,0
2017-02-12T03:35:23.758Z,0
2017-02-12T03:36:23.824Z,0
2017-02-12T03:37:23.821Z,0
2017-02-12T03:38:23.769Z,0
2017-02-12T03:39:22.943Z,0
2017-02-12T03:40:23.886Z,0
2017-02-12T03:41:24.796Z,0
2017-02-12T03:42:23.802Z,0
2017-02-12T03:43:23.860Z,0
2017-02-12T03:44:23.810Z,0
2017-02-12T03:45:23.767Z,0
2017-02-12T03:46:23.420Z,0
2017-02-12T03:47:23.486Z,0
2017-02-12T03:48:23.782Z,0
2017-02-12T03:49:23.394Z,0
2017-02-12T03:50:23.844Z,0
2017-02-12T03:51:23.849Z,0
2017-02-12T03:52:24.908Z,0
2017-02-12T03:53:23.858Z,0
2017-02-12T03:54:23.919Z,0
2017-02-12T03:55:23.432Z,0
2017-02-12T03:56:23.926Z,0
2017-02-12T03:57:23.888Z,0
2017-02-12T03:58:23.844Z,0
2017-02-12T03:59:23.896Z,0
2017-02-12T04:00:23.902Z,0
2017-02-12T04:01:23.907Z,0
2017-02-12T04:02:23.475Z,0
2017-02-12T04:03:24.672Z,0
2017-02-12T04:04:23.482Z,0
2017-02-12T04:05:23.882Z,0
2017-02-12T04:06:23.545Z,0
2017-02-12T04:07:23.503Z,0
2017-02-12T04:08:23.902Z,0
2017-02-12T04:09:23.961Z,0
2017-02-12T04:10:24.011Z,0
2017-02-12T04:11:23.969Z,0
2017-02-12T04:12:23.930Z,0
2017-02-12T04:13:24.075Z,0
2017-02-12T04:14:24.336Z,0
2017-02-12T04:15:23.939Z,0
2017-02-12T04:16:23.658Z,0
2017-02-12T04:17:23.558Z,0
2017-02-12T04:18:24.419Z,0
2017-02-12T04:19:24.067Z,0
2017-02-12T04:20:24.022Z,0
2017-02-12T04:21:23.634Z,0
2017-02-12T04:22:24.034Z,0
2017-02-12T04:23:23.643Z,0
2017-02-12T04:24:23.994Z,0
2017-02-12T04:25:23.653Z,0
2017-02-12T04:26:23.615Z,0
2017-02-12T04:27:25.427Z,0
2017-02-12T04:28:23.671Z,0
2017-02-12T04:29:24.220Z,0
2017-02-12T04:30:23.742Z,0
2017-02-12T04:31:23.244Z,0
2017-02-12T04:32:24.190Z,0
2017-02-12T04:33:23.252Z,0
2017-02-12T04:34:24.054Z,0
2017-02-12T04:35:23.705Z,0
2017-02-12T04:36:24.062Z,0
2017-02-12T04:37:23.325Z,0
2017-02-12T04:38:24.854Z,0
2017-02-12T04:39:24.131Z,0
2017-02-12T04:40:24.185Z,0
2017-02-12T04:41:24.194Z,0
2017-02-12T04:42:24.100Z,0
2017-02-12T04:43:24.155Z,0
2017-02-12T04:44:24.160Z,0
2017-02-12T04:45:23.721Z,0
2017-02-12T04:46:23.330Z,0
2017-02-12T04:47:24.225Z,0
2017-02-12T04:48:24.180Z,0
2017-02-12T04:49:25.036Z,0
2017-02-12T04:50:24.142Z,0
2017-02-12T04:51:23.802Z,0
2017-02-12T04:52:23.809Z,0
2017-02-12T04:53:24.261Z,0
2017-02-12T04:54:23.824Z,0
2017-02-12T04:55:24.223Z,0
2017-02-12T04:56:24.282Z,0
2017-02-12T04:57:24.185Z,0
2017-02-12T04:58:24.595Z,0
2017-02-12T04:59:23.805Z,0
2017-02-12T05:00:24.851Z,0
2017-02-12T05:01:23.915Z,0
2017-02-12T05:02:24.265Z,0
2017-02-12T05:03:23.929Z,0
2017-02-12T05:04:24.930Z,0
2017-02-12T05:05:24.280Z,0
2017-02-12T05:06:24.339Z,0
2017-02-12T05:07:24.203Z,0
2017-02-12T05:08:24.301Z,0
2017-02-12T05:09:24.308Z,0
2017-02-12T05:10:24.314Z,0
2017-02-12T05:11:24.818Z,0
2017-02-12T05:12:24.377Z,0
2017-02-12T05:13:24.331Z,0
2017-02-12T05:14:24.339Z,0
2017-02-12T05:15:24.793Z,0
2017-02-12T05:16:24.651Z,0
2017-02-12T05:17:24.605Z,0
2017-02-12T05:18:24.013Z,0
2017-02-12T05:19:23.970Z,0
2017-02-12T05:20:23.973Z,0
2017-02-12T05:21:24.323Z,0
2017-02-12T05:22:24.236Z,0
2017-02-12T05:23:24.388Z,0
2017-02-12T05:24:25.724Z,0
2017-02-12T05:25:23.952Z,0
2017-02-12T05:26:24.864Z,0
2017-02-12T05:27:24.411Z,0
2017-02-12T05:28:23.574Z,0
2017-02-12T05:29:24.509Z,0
2017-02-12T05:30:24.429Z,0
2017-02-12T05:31:24.435Z,0
2017-02-12T05:32:24.440Z,0
2017-02-12T05:33:24.053Z,0
2017-02-12T05:34:24.055Z,0
2017-02-12T05:35:25.727Z,0
2017-02-12T05:36:24.073Z,0
2017-02-12T05:37:24.768Z,0
2017-02-12T05:38:24.035Z,0
2017-02-12T05:39:24.429Z,0
2017-02-12T05:40:24.442Z,0
2017-02-12T05:41:24.099Z,0
2017-02-12T05:42:24.146Z,0
2017-02-12T05:43:23.664Z,0
2017-02-12T05:44:24.511Z,0
2017-02-12T05:45:24.514Z,0
2017-02-12T05:46:25.675Z,0
2017-02-12T05:47:24.480Z,0
2017-02-12T05:48:24.535Z,0
2017-02-12T05:49:24.091Z,0
2017-02-12T05:50:25.594Z,0
2017-02-12T05:51:24.604Z,0
2017-02-12T05:52:24.112Z,0
2017-02-12T05:53:24.561Z,0
2017-02-12T05:54:24.519Z,0
2017-02-12T05:55:24.575Z,0
2017-02-12T05:56:24.188Z,0
2017-02-12T05:57:25.689Z,0
2017-02-12T05:58:24.645Z,0
2017-02-12T05:59:24.951Z,0
2017-02-12T06:00:24.553Z,0
2017-02-12T06:01:25.674Z,0
2017-02-12T06:02:24.664Z,0
2017-02-12T06:03:24.622Z,0
2017-02-12T06:04:24.678Z,0
2017-02-12T06:05:24.594Z,0
2017-02-12T06:06:24.294Z,0
2017-02-12T06:07:24.649Z,0
2017-02-12T06:08:25.652Z,0
2017-02-12T06:09:24.211Z,0
2017-02-12T06:10:24.663Z,0
2017-02-12T06:11:24.655Z,0
2017-02-12T06:12:25.943Z,0
2017-02-12T06:13:24.644Z,0
2017-02-12T06:14:24.687Z,0
2017-02-12T06:15:24.644Z,0
2017-02-12T06:16:24.350Z,0
2017-02-12T06:17:24.310Z,0
2017-02-12T06:18:24.314Z,0
2017-02-12T06:19:24.763Z,0
2017-02-12T06:20:24.769Z,0
2017-02-12T06:21:24.726Z,0
2017-02-12T06:22:24.733Z,0
2017-02-12T06:23:25.447Z,0
2017-02-12T06:24:24.787Z,0
2017-02-12T06:25:24.357Z,0
2017-02-12T06:26:24.703Z,0
2017-02-12T06:27:24.317Z,0
2017-02-12T06:28:24.368Z,0
2017-02-12T06:29:24.728Z,4
2017-02-12T06:30:24.840Z,4
2017-02-12T06:31:24.339Z,0
2017-02-12T06:32:24.746Z,0
2017-02-12T06:33:24.797Z,0
2017-02-12T06:34:25.613Z,0
2017-02-12T06:35:24.808Z,4
2017-02-12T06:36:24.417Z,4
2017-02-12T06:37:24.376Z,4
2017-02-12T06:38:24.873Z,0
2017-02-12T06:39:24.786Z,4
2017-02-12T06:40:25.288Z,4
2017-02-12T06:41:24.401Z,8
2017-02-12T06:42:24.800Z,8
2017-02-12T06:43:24.861Z,4
2017-02-12T06:44:24.811Z,8
2017-02-12T06:45:25.524Z,8
2017-02-12T06:46:24.830Z,8
2017-02-12T06:47:24.483Z,12
2017-02-12T06:48:24.890Z,8
2017-02-12T06:49:24.891Z,8
2017-02-12T06:50:24.897Z,12
2017-02-12T06:51:24.508Z,12
2017-02-12T06:52:24.858Z,12
2017-02-12T06:53:24.915Z,16
2017-02-12T06:54:24.573Z,16
2017-02-12T06:55:24.477Z,16
2017-02-12T06:56:25.481Z,16
2017-02-12T06:57:24.887Z,20
2017-02-12T06:58:25.245Z,24
2017-02-12T06:59:24.951Z,24
2017-02-12T07:00:25.012Z,28
2017-02-12T07:01:24.571Z,28
2017-02-12T07:02:24.965Z,28
2017-02-12T07:03:24.978Z,28
2017-02-12T07:04:24.974Z,28
2017-02-12T07:05:24.540Z,32
2017-02-12T07:06:24.988Z,32
2017-02-12T07:07:25.949Z,36
2017-02-12T07:08:24.655Z,36
2017-02-12T07:09:24.954Z,36
2017-02-12T07:10:24.731Z,36
2017-02-12T07:11:25.072Z,32
2017-02-12T07:12:24.583Z,36
2017-02-12T07:13:25.032Z,36
2017-02-12T07:14:24.988Z,36
2017-02-12T07:15:25.343Z,36
2017-02-12T07:16:24.649Z,40
2017-02-12T07:17:24.607Z,48
2017-02-12T07:18:25.915Z,56
2017-02-12T07:19:25.014Z,68
2017-02-12T07:20:25.075Z,72
2017-02-12T07:21:25.075Z,84
2017-02-12T07:22:25.087Z,88
2017-02-12T07:23:24.697Z,92
2017-02-12T07:24:25.045Z,92
2017-02-12T07:25:25.149Z,92
2017-02-12T07:26:25.103Z,100
2017-02-12T07:27:25.061Z,100
2017-02-12T07:28:25.066Z,108
2017-02-12T07:29:25.678Z,120
2017-02-12T07:30:25.122Z,136
2017-02-12T07:31:24.695Z,156
2017-02-12T07:32:25.093Z,180
2017-02-12T07:33:26.145Z,204
2017-02-12T07:34:25.156Z,224
2017-02-12T07:35:25.107Z,236
2017-02-12T07:36:24.771Z,256
2017-02-12T07:37:25.271Z,260
2017-02-12T07:38:25.177Z,276
2017-02-12T07:39:24.783Z,280
2017-02-12T07:40:25.644Z,288
2017-02-12T07:41:24.746Z,296
2017-02-12T07:42:25.199Z,300
2017-02-12T07:43:25.205Z,292
2017-02-12T07:44:25.574Z,288
2017-02-12T07:45:25.169Z,304
2017-02-12T07:46:25.226Z,312
2017-02-12T07:47:25.186Z,312
2017-02-12T07:48:25.234Z,316
2017-02-12T07:49:25.107Z,328
2017-02-12T07:50:24.850Z,328
2017-02-12T07:51:25.460Z,324
2017-02-12T07:52:25.265Z,324
2017-02-12T07:53:25.317Z,336
2017-02-12T07:54:24.875Z,348
2017-02-12T07:55:25.976Z,356
2017-02-12T07:56:24.839Z,360
2017-02-12T07:57:24.843Z,372
2017-02-12T07:58:25.356Z,380
2017-02-12T07:59:25.352Z,392
2017-02-12T08:00:25.360Z,400
2017-02-12T08:01:25.314Z,416
2017-02-12T08:02:24.925Z,440
2017-02-12T08:03:25.272Z,460
2017-02-12T08:04:26.908Z,488
2017-02-12T08:05:25.291Z,500
2017-02-12T08:06:25.844Z,516
2017-02-12T08:07:25.299Z,532
2017-02-12T08:08:25.353Z,548
2017-02-12T08:09:24.968Z,560
2017-02-12T08:10:25.317Z,568
2017-02-12T08:11:25.377Z,556
2017-02-12T08:12:24.617Z,556
2017-02-12T08:13:24.648Z,572
2017-02-12T08:14:24.947Z,576
2017-02-12T08:15:26.694Z,584
2017-02-12T08:16:25.402Z,600
2017-02-12T08:17:25.666Z,612
2017-02-12T08:18:25.415Z,636
2017-02-12T08:19:25.026Z,660
2017-02-12T08:20:25.379Z,680
2017-02-12T08:21:25.434Z,712
2017-02-12T08:22:25.391Z,748
2017-02-12T08:23:25.046Z,788
2017-02-12T08:24:25.003Z,860
2017-02-12T08:25:25.460Z,864
2017-02-12T08:26:26.683Z,884
2017-02-12T08:27:25.026Z,876
2017-02-12T08:28:25.628Z,844
2017-02-12T08:29:25.136Z,872
2017-02-12T08:30:25.046Z,852
2017-02-12T08:31:25.099Z,808
2017-02-12T08:32:25.105Z,748
2017-02-12T08:33:25.163Z,724
2017-02-12T08:34:24.672Z,736
2017-02-12T08:35:25.618Z,752
2017-02-12T08:36:25.127Z,740
2017-02-12T08:37:26.516Z,696
2017-02-12T08:38:25.485Z,664
2017-02-12T08:39:25.490Z,672
2017-02-12T08:40:24.807Z,644
2017-02-12T08:41:26.515Z,612
2017-02-12T08:42:25.115Z,588
2017-02-12T08:43:25.172Z,584
2017-02-12T08:44:25.580Z,584
2017-02-12T08:45:24.786Z,576
2017-02-12T08:46:25.535Z,556
2017-02-12T08:47:25.541Z,524
2017-02-12T08:48:25.545Z,504
2017-02-12T08:49:25.605Z,492
2017-02-12T08:50:25.559Z,492
2017-02-12T08:51:25.169Z,504
2017-02-12T08:52:26.725Z,520
2017-02-12T08:53:25.624Z,540
2017-02-12T08:54:25.193Z,556
2017-02-12T08:55:25.942Z,576
2017-02-12T08:56:25.200Z,612
2017-02-12T08:57:25.699Z,652
2017-02-12T08:58:25.607Z,692
2017-02-12T08:59:25.271Z,760
2017-02-12T09:00:25.975Z,872
2017-02-12T09:01:25.280Z,1008
2017-02-12T09:02:25.679Z,1044
2017-02-12T09:03:26.278Z,1056
2017-02-12T09:04:25.690Z,1144
2017-02-12T09:05:25.256Z,1396
2017-02-12T09:06:25.259Z,1552
2017-02-12T09:07:25.662Z,1672
2017-02-12T09:08:25.027Z,1960
2017-02-12T09:09:25.680Z,2192
2017-02-12T09:10:26.029Z,2360
2017-02-12T09:11:25.764Z,2548
2017-02-12T09:12:25.346Z,2856
2017-02-12T09:13:25.702Z,3000
2017-02-12T09:14:25.858Z,3340
2017-02-12T09:15:26.114Z,3212
2017-02-12T09:16:25.374Z,3000
2017-02-12T09:17:25.730Z,3016
2017-02-12T09:18:25.732Z,2972
2017-02-12T09:19:25.850Z,2816
2017-02-12T09:20:25.849Z,3012
2017-02-12T09:21:25.807Z,3224
2017-02-12T09:22:25.764Z,3524
2017-02-12T09:23:26.744Z,2864
2017-02-12T09:24:25.883Z,1828
2017-02-12T09:25:26.138Z,1664
2017-02-12T09:26:25.948Z,1984
2017-02-12T09:27:25.899Z,3256
2017-02-12T09:28:25.415Z,3256
2017-02-12T09:29:25.517Z,3652
2017-02-12T09:30:25.527Z,3576
2017-02-12T09:31:25.489Z,3452
2017-02-12T09:32:25.541Z,2544
2017-02-12T09:33:25.450Z,2676
2017-02-12T09:34:25.456Z,2896
2017-02-12T09:35:25.908Z,3120
2017-02-12T09:36:26.269Z,3712
2017-02-12T09:37:25.980Z,3228
2017-02-12T09:38:25.535Z,2600
2017-02-12T09:39:25.883Z,3740
2017-02-12T09:40:25.948Z,3136
2017-02-12T09:41:25.559Z,3816
2017-02-12T09:42:25.519Z,3912
2017-02-12T09:43:25.134Z,4144
2017-02-12T09:44:26.280Z,4640
2017-02-12T09:45:25.587Z,2556
2017-02-12T09:46:26.042Z,2728
2017-02-12T09:47:26.101Z,5188
2017-02-12T09:48:25.563Z,5096
2017-02-12T09:49:25.620Z,4588
2017-02-12T09:50:25.973Z,4964
2017-02-12T09:51:25.978Z,5596
2017-02-12T09:52:25.639Z,6880
2017-02-12T09:53:26.042Z,7196
2017-02-12T09:54:25.656Z,7128
2017-02-12T09:55:26.360Z,7500
2017-02-12T09:56:25.722Z,7628
2017-02-12T09:57:26.125Z,7484
2017-02-12T09:58:26.081Z,7624
2017-02-12T09:59:26.142Z,7544
2017-02-12T10:00:27.458Z,6988
2017-02-12T10:01:26.051Z,6696
2017-02-12T10:02:26.263Z,7616
2017-02-12T10:03:26.115Z,5936
2017-02-12T10:04:26.145Z,3576
2017-02-12T10:05:25.733Z,2208
2017-02-12T10:06:26.189Z,2000
2017-02-12T10:07:26.142Z,1932
2017-02-12T10:08:25.703Z,1928
2017-02-12T10:09:26.106Z,1584
2017-02-12T10:10:26.166Z,1604
2017-02-12T10:11:27.222Z,1872
2017-02-12T10:12:26.224Z,1912
2017-02-12T10:13:25.938Z,1852
2017-02-12T10:14:26.139Z,1840
2017-02-12T10:15:25.804Z,1832
2017-02-12T10:16:25.819Z,1688
2017-02-12T10:17:26.163Z,1524
2017-02-12T10:18:26.169Z,1592
2017-02-12T10:19:26.281Z,1360
2017-02-12T10:20:26.279Z,1536
2017-02-12T10:21:25.842Z,1448
2017-02-12T10:22:27.396Z,1516
2017-02-12T10:23:26.199Z,1332
2017-02-12T10:24:26.209Z,1308
2017-02-12T10:25:26.631Z,1368
2017-02-12T10:26:26.272Z,1432
2017-02-12T10:27:26.234Z,1452
2017-02-12T10:28:25.894Z,1404
2017-02-12T10:29:26.345Z,1312
2017-02-12T10:30:26.247Z,1396
2017-02-12T10:31:25.855Z,1356
2017-02-12T10:32:25.912Z,1284
2017-02-12T10:33:28.363Z,1336
2017-02-12T10:34:25.977Z,1336
2017-02-12T10:35:26.326Z,1340
2017-02-12T10:36:25.996Z,1256
2017-02-12T10:37:26.000Z,1144
2017-02-12T10:38:26.002Z,1124
2017-02-12T10:39:26.354Z,1120
2017-02-12T10:40:26.410Z,1144
2017-02-12T10:41:26.369Z,1252
2017-02-12T10:42:26.078Z,1436
2017-02-12T10:43:26.380Z,1596
2017-02-12T10:44:26.839Z,1720
2017-02-12T10:45:26.493Z,1700
2017-02-12T10:46:26.349Z,1588
2017-02-12T10:47:25.672Z,1672
2017-02-12T10:48:27.261Z,1692
2017-02-12T10:49:26.373Z,1688
2017-02-12T10:50:26.424Z,1724
2017-02-12T10:51:26.429Z,1736
2017-02-12T10:52:26.421Z,1764
2017-02-12T10:53:26.153Z,1764
2017-02-12T10:54:26.065Z,1752
2017-02-12T10:55:26.955Z,1808
2017-02-12T10:56:26.568Z,1808
2017-02-12T10:57:26.420Z,1704
2017-02-12T10:58:26.552Z,1484
2017-02-12T10:59:27.186Z,1448
2017-02-12T11:00:26.533Z,1344
2017-02-12T11:01:26.502Z,1272
2017-02-12T11:02:26.206Z,1244
2017-02-12T11:03:26.557Z,1224
2017-02-12T11:04:26.415Z,1228
2017-02-12T11:05:26.524Z,1152
2017-02-12T11:06:26.729Z,1108
2017-02-12T11:07:26.533Z,1044
2017-02-12T11:08:26.643Z,992
2017-02-12T11:09:26.499Z,924
2017-02-12T11:10:27.301Z,896
2017-02-12T11:11:26.560Z,860
2017-02-12T11:12:26.562Z,856
2017-02-12T11:13:26.570Z,828
2017-02-12T11:14:26.575Z,784
2017-02-12T11:15:26.683Z,784
2017-02-12T11:16:26.593Z,796
2017-02-12T11:17:26.649Z,820
2017-02-12T11:18:26.205Z,844
2017-02-12T11:19:26.264Z,852
2017-02-12T11:20:26.618Z,896
2017-02-12T11:21:27.423Z,936
2017-02-12T11:22:26.626Z,972
2017-02-12T11:23:26.632Z,980
2017-02-12T11:24:26.588Z,992
2017-02-12T11:25:26.744Z,1000
2017-02-12T11:26:26.257Z,1000
2017-02-12T11:27:26.569Z,988
2017-02-12T11:28:26.371Z,980
2017-02-12T11:29:26.668Z,964
2017-02-12T11:30:26.280Z,952
2017-02-12T11:31:26.689Z,968
2017-02-12T11:32:27.141Z,952
2017-02-12T11:33:26.249Z,940
2017-02-12T11:34:26.259Z,944
2017-02-12T11:35:25.864Z,960
2017-02-12T11:36:26.719Z,988
2017-02-12T11:37:26.270Z,1048
2017-02-12T11:38:26.376Z,1124
2017-02-12T11:39:26.384Z,1196
2017-02-12T11:40:26.685Z,1196
2017-02-12T11:41:27.669Z,1228
2017-02-12T11:42:26.348Z,1236
2017-02-12T11:43:27.109Z,1228
2017-02-12T11:44:26.756Z,1208
2017-02-12T11:45:26.318Z,1152
2017-02-12T11:46:26.724Z,1068
2017-02-12T11:47:26.383Z,988
2017-02-12T11:48:26.429Z,912
2017-02-12T11:49:26.838Z,844
2017-02-12T11:50:26.452Z,784
2017-02-12T11:51:26.408Z,752
2017-02-12T11:52:26.418Z,732
2017-02-12T11:53:26.867Z,732
2017-02-12T11:54:26.872Z,732
2017-02-12T11:55:26.827Z,752
2017-02-12T11:56:26.501Z,760
2017-02-12T11:57:26.789Z,764
2017-02-12T11:58:26.847Z,752
2017-02-12T11:59:26.859Z,752
2017-02-12T12:00:26.807Z,756
2017-02-12T12:01:26.915Z,764
2017-02-12T12:02:26.871Z,780
2017-02-12T12:03:26.925Z,800
2017-02-12T12:04:26.042Z,820
2017-02-12T12:05:26.935Z,836
2017-02-12T12:06:26.051Z,852
2017-02-12T12:07:27.897Z,868
2017-02-12T12:08:26.910Z,888
2017-02-12T12:09:26.865Z,908
2017-02-12T12:10:26.977Z,928
2017-02-12T12:11:26.961Z,944
2017-02-12T12:12:26.885Z,960
2017-02-12T12:13:26.935Z,984
2017-02-12T12:14:26.942Z,1004
2017-02-12T12:15:26.901Z,1016
2017-02-12T12:16:26.911Z,1028
2017-02-12T12:17:26.614Z,1028
2017-02-12T12:18:26.670Z,1024
2017-02-12T12:19:27.074Z,1016
2017-02-12T12:20:26.981Z,1008
2017-02-12T12:21:26.992Z,996
2017-02-12T12:22:26.600Z,980
2017-02-12T12:23:26.654Z,964
2017-02-12T12:24:26.557Z,948
2017-02-12T12:25:26.263Z,936
2017-02-12T12:26:26.966Z,920
2017-02-12T12:27:26.924Z,912
2017-02-12T12:28:26.682Z,892
2017-02-12T12:29:27.561Z,872
2017-02-12T12:30:27.039Z,848
2017-02-12T12:31:27.092Z,832
2017-02-12T12:32:26.311Z,820
2017-02-12T12:33:27.058Z,824
2017-02-12T12:34:26.615Z,836
2017-02-12T12:35:27.067Z,848
2017-02-12T12:36:26.678Z,856
2017-02-12T12:37:27.176Z,868
2017-02-12T12:38:27.141Z,880
2017-02-12T12:39:27.093Z,888
2017-02-12T12:40:28.393Z,876
2017-02-12T12:41:26.656Z,868
2017-02-12T12:42:27.560Z,856
2017-02-12T12:43:26.823Z,836
2017-02-12T12:44:27.072Z,824
2017-02-12T12:45:26.684Z,828
2017-02-12T12:46:26.793Z,832
2017-02-12T12:47:27.089Z,840
2017-02-12T12:48:26.750Z,844
2017-02-12T12:49:27.406Z,852
2017-02-12T12:50:26.815Z,856
2017-02-12T12:51:26.769Z,852
2017-02-12T12:52:26.724Z,860
2017-02-12T12:53:27.530Z,848
2017-02-12T12:54:27.310Z,840
2017-02-12T12:55:26.791Z,832
2017-02-12T12:56:27.191Z,832
2017-02-12T12:57:27.199Z,836
2017-02-12T12:58:27.610Z,848
2017-02-12T12:59:26.771Z,856
2017-02-12T13:00:27.171Z,864
2017-02-12T13:01:27.175Z,888
2017-02-12T13:02:28.455Z,872
2017-02-12T13:03:27.288Z,808
2017-02-12T13:04:27.342Z,756
2017-02-12T13:05:27.253Z,712
2017-02-12T13:06:26.808Z,700
2017-02-12T13:07:27.210Z,696
2017-02-12T13:08:26.919Z,692
2017-02-12T13:09:27.218Z,680
2017-02-12T13:10:27.331Z,664
2017-02-12T13:11:26.836Z,660
2017-02-12T13:12:27.289Z,628
2017-02-12T13:13:27.989Z,596
2017-02-12T13:14:27.300Z,576
2017-02-12T13:15:27.216Z,612
2017-02-12T13:16:27.266Z,636
2017-02-12T13:17:27.272Z,620
2017-02-12T13:18:27.330Z,632
2017-02-12T13:19:27.336Z,656
2017-02-12T13:20:26.912Z,712
2017-02-12T13:21:27.346Z,748
2017-02-12T13:22:26.560Z,752
2017-02-12T13:23:27.705Z,804
2017-02-12T13:24:27.917Z,816
2017-02-12T13:25:27.317Z,820
2017-02-12T13:26:27.526Z,820
2017-02-12T13:27:27.029Z,836
2017-02-12T13:28:28.443Z,840
2017-02-12T13:29:26.947Z,848
2017-02-12T13:30:27.002Z,880
2017-02-12T13:31:26.957Z,1136
2017-02-12T13:32:27.118Z,1704
2017-02-12T13:33:27.413Z,1468
2017-02-12T13:34:27.024Z,1436
2017-02-12T13:35:28.316Z,1048
2017-02-12T13:36:27.379Z,1004
2017-02-12T13:37:26.998Z,1244
2017-02-12T13:38:27.100Z,2280
2017-02-12T13:39:28.353Z,2996
2017-02-12T13:40:27.512Z,1768
2017-02-12T13:41:26.677Z,1904
2017-02-12T13:42:27.124Z,1748
2017-02-12T13:43:27.481Z,1356
2017-02-12T13:44:27.740Z,1248
2017-02-12T13:45:27.443Z,1308
2017-02-12T13:46:27.498Z,1140
2017-02-12T13:47:27.054Z,1112
2017-02-12T13:48:27.068Z,1680
2017-02-12T13:49:27.614Z,1724
2017-02-12T13:50:28.269Z,1352
2017-02-12T13:51:27.532Z,3064
2017-02-12T13:52:27.092Z,4412
2017-02-12T13:53:27.247Z,2364
2017-02-12T13:54:27.546Z,1304
2017-02-12T13:55:27.604Z,1244
2017-02-12T13:56:27.169Z,1316
2017-02-12T13:57:27.173Z,1220
2017-02-12T13:58:27.181Z,1068
2017-02-12T13:59:27.533Z,832
2017-02-12T14:00:27.587Z,672
2017-02-12T14:01:28.198Z,636
2017-02-12T14:02:27.651Z,620
2017-02-12T14:03:27.262Z,608
2017-02-12T14:04:27.862Z,600
2017-02-12T14:05:27.571Z,592
2017-02-12T14:06:27.575Z,584
2017-02-12T14:07:27.731Z,576
2017-02-12T14:08:27.644Z,568
2017-02-12T14:09:27.247Z,560